createdAt,value
2022-08-09T00:02:49.994Z,98.00
2022-08-09T00:06:48.782Z,99.00
2022-08-09T00:10:45.794Z,99.70
2022-08-09T00:14:45.349Z,99.90
2022-08-09T00:18:45.065Z,99.90
2022-08-09T00:22:42.411Z,99.90
2022-08-09T00:26:42.021Z,99.90
2022-08-09T00:30:39.033Z,99.90
2022-08-09T00:34:37.747Z,99.90
2022-08-09T00:38:35.508Z,99.90
2022-08-09T00:44:10.922Z,99.90
2022-08-09T00:46:57.500Z,99.90
2022-08-09T00:51:05.160Z,99.90
2022-08-09T00:55:16.741Z,99.90
2022-08-09T00:59:40.750Z,99.90
2022-08-09T01:03:51.931Z,99.90
2022-08-09T01:08:13.716Z,99.90
2022-08-09T01:12:38.598Z,99.90
2022-08-09T01:16:46.978Z,99.90
2022-08-09T01:21:20.939Z,99.90
2022-08-09T01:26:01.093Z,99.90
2022-08-09T01:30:06.861Z,99.90
2022-08-09T01:34:10.715Z,99.90
2022-08-09T01:38:15.829Z,99.90
2022-08-09T01:42:13.867Z,99.90
2022-08-09T01:46:23.845Z,99.90
2022-08-09T01:50:36.605Z,99.90
2022-08-09T01:54:40.698Z,99.90
2022-08-09T01:58:40.239Z,99.90
2022-08-09T02:02:43.953Z,99.90
2022-08-09T02:07:03.176Z,99.90
2022-08-09T02:11:16.976Z,99.90
2022-08-09T02:15:19.583Z,99.90
2022-08-09T02:19:20.776Z,99.90
2022-08-09T02:23:39.874Z,99.90
2022-08-09T02:28:00.660Z,99.90
2022-08-09T02:32:04.677Z,99.90
2022-08-09T02:36:08.027Z,99.90
2022-08-09T02:40:13.121Z,99.90
2022-08-09T02:44:29.578Z,99.90
2022-08-09T02:48:31.709Z,99.90
2022-08-09T02:52:37.521Z,99.90
2022-08-09T02:56:37.990Z,99.90
2022-08-09T03:00:57.598Z,99.90
2022-08-09T03:04:58.937Z,99.90
2022-08-09T03:09:00.331Z,99.90
2022-08-09T03:13:00.413Z,99.90
2022-08-09T03:17:01.834Z,99.90
2022-08-09T03:21:02.974Z,99.90
2022-08-09T03:25:06.210Z,99.90
2022-08-09T03:29:22.985Z,99.90
2022-08-09T03:33:21.837Z,99.90
2022-08-09T03:37:56.662Z,99.90
2022-08-09T03:41:45.772Z,99.90
2022-08-09T03:46:05.423Z,99.90
2022-08-09T03:50:06.841Z,99.90
2022-08-09T03:54:06.262Z,99.90
2022-08-09T03:58:14.862Z,99.90
2022-08-09T04:02:14.236Z,99.90
2022-08-09T04:06:11.852Z,99.90
2022-08-09T04:10:09.301Z,99.90
2022-08-09T04:14:53.002Z,99.90
2022-08-09T04:18:24.911Z,99.90
2022-08-09T04:22:22.269Z,99.90
2022-08-09T04:26:19.277Z,99.90
2022-08-09T04:30:23.363Z,99.90
2022-08-09T04:34:30.481Z,99.90
2022-08-09T04:38:28.728Z,99.90
2022-08-09T04:42:29.773Z,99.90
2022-08-09T04:46:56.814Z,99.90
2022-08-09T04:50:45.067Z,99.90
2022-08-09T04:54:43.584Z,99.90
2022-08-09T04:58:41.004Z,99.90
2022-08-09T05:02:38.967Z,99.90
2022-08-09T05:06:37.455Z,99.90
2022-08-09T05:10:36.647Z,99.90
2022-08-09T05:14:35.190Z,99.90
2022-08-09T05:18:42.044Z,99.90
2022-08-09T05:23:57.910Z,99.90
2022-08-09T05:27:09.888Z,99.90
2022-08-09T05:31:10.574Z,99.90
2022-08-09T05:35:08.269Z,99.90
2022-08-09T05:39:06.187Z,99.90
2022-08-09T05:43:07.672Z,99.90
2022-08-09T05:47:06.392Z,99.90
2022-08-09T05:51:16.944Z,99.90
2022-08-09T05:55:21.840Z,99.90
2022-08-09T05:59:22.045Z,99.90
2022-08-09T06:03:19.936Z,99.90
2022-08-09T06:07:21.294Z,99.90
2022-08-09T06:11:19.059Z,99.90
2022-08-09T06:15:21.557Z,99.90
2022-08-09T06:19:19.007Z,99.90
2022-08-09T06:23:17.987Z,99.90
2022-08-09T06:27:15.680Z,99.90
2022-08-09T06:31:12.953Z,99.90
2022-08-09T06:35:11.187Z,99.90
2022-08-09T06:39:11.661Z,99.90
2022-08-09T06:43:10.409Z,99.90
2022-08-09T06:47:08.512Z,99.90
2022-08-09T06:51:05.759Z,99.90
2022-08-09T06:55:10.083Z,99.90
2022-08-09T07:00:49.734Z,99.90
2022-08-09T07:03:28.357Z,99.90
2022-08-09T07:07:58.998Z,99.90
2022-08-09T07:11:51.992Z,99.90
2022-08-09T07:16:38.720Z,99.90
2022-08-09T07:20:09.727Z,99.90
2022-08-09T07:24:07.277Z,99.90
2022-08-09T07:28:04.779Z,99.90
2022-08-09T07:32:03.738Z,99.90
2022-08-09T07:36:00.762Z,99.90
2022-08-09T07:39:58.195Z,99.90
2022-08-09T07:43:56.710Z,99.90
2022-08-09T07:48:01.678Z,99.90
2022-08-09T07:52:05.013Z,99.90
2022-08-09T07:56:27.136Z,99.90
2022-08-09T08:00:36.117Z,99.90
2022-08-09T08:04:34.291Z,99.90
2022-08-09T08:09:02.145Z,99.90
2022-08-09T08:12:49.445Z,99.90
2022-08-09T08:17:00.829Z,98.70
2022-08-09T08:21:03.515Z,98.10
2022-08-09T08:25:00.509Z,96.20
2022-08-09T08:28:57.490Z,93.50
2022-08-09T08:32:54.825Z,89.30
2022-08-09T08:36:51.834Z,82.90
2022-08-09T08:40:50.167Z,78.90
2022-08-09T08:44:57.740Z,73.50
2022-08-09T08:48:56.021Z,69.20
2022-08-09T08:52:59.485Z,63.60
2022-08-09T08:56:58.606Z,63.60
2022-08-09T09:00:58.261Z,61.70
2022-08-09T09:04:59.347Z,60.10
2022-08-09T09:09:06.812Z,59.40
2022-08-09T09:13:19.456Z,59.60
2022-08-09T09:17:21.134Z,59.40
2022-08-09T09:21:26.043Z,59.50
2022-08-09T09:26:00.868Z,58.60
2022-08-09T09:30:26.230Z,57.80
2022-08-09T09:34:29.945Z,55.60
2022-08-09T09:38:56.923Z,55.30
2022-08-09T09:42:57.897Z,53.40
2022-08-09T09:47:16.435Z,50.60
2022-08-09T09:51:26.213Z,49.00
2022-08-09T09:56:05.253Z,48.60
2022-08-09T10:00:03.378Z,49.00
2022-08-09T10:04:16.265Z,49.80
2022-08-09T10:08:28.468Z,51.70
2022-08-09T10:12:51.782Z,53.10
2022-08-09T10:16:57.813Z,51.10
2022-08-09T10:21:11.083Z,49.50
2022-08-09T10:25:12.293Z,49.90
2022-08-09T10:29:37.557Z,49.50
2022-08-09T10:34:11.161Z,48.20
2022-08-09T10:37:49.181Z,48.40
2022-08-09T10:41:49.583Z,47.80
2022-08-09T10:45:58.499Z,47.20
2022-08-09T10:50:21.089Z,46.90
2022-08-09T10:54:28.181Z,46.90
2022-08-09T10:58:35.340Z,47.20
2022-08-09T11:03:15.364Z,47.60
2022-08-09T11:07:01.534Z,47.20
2022-08-09T11:11:08.797Z,46.90
2022-08-09T11:15:33.839Z,46.80
2022-08-09T11:20:11.775Z,47.00
2022-08-09T11:24:19.599Z,44.60
2022-08-09T11:28:56.284Z,43.60
2022-08-09T11:33:03.295Z,41.90
2022-08-09T11:37:02.589Z,42.60
2022-08-09T11:41:14.248Z,42.60
2022-08-09T11:45:42.785Z,39.90
2022-08-09T11:50:56.658Z,38.40
2022-08-09T11:54:27.500Z,39.40
2022-08-09T11:58:33.631Z,39.30
2022-08-09T12:02:37.069Z,40.50
2022-08-09T12:06:36.303Z,40.30
2022-08-09T12:10:40.037Z,38.50
2022-08-09T12:14:58.920Z,37.40
2022-08-09T12:18:56.236Z,37.40
2022-08-09T12:23:01.255Z,37.80
2022-08-09T12:29:13.894Z,40.80
2022-08-09T12:31:58.202Z,39.90
2022-08-09T12:35:40.805Z,39.30
2022-08-09T12:39:40.160Z,40.20
2022-08-09T12:44:05.529Z,40.20
2022-08-09T12:47:56.263Z,40.00
2022-08-09T12:52:01.058Z,37.90
2022-08-09T12:56:40.009Z,38.30
2022-08-09T13:00:43.976Z,37.90
2022-08-09T13:05:02.636Z,37.80
2022-08-09T13:09:06.135Z,38.00
2022-08-09T13:13:11.280Z,36.20
2022-08-09T13:17:21.919Z,36.70
2022-08-09T13:22:36.525Z,35.00
2022-08-09T13:25:54.598Z,36.50
2022-08-09T13:30:51.141Z,35.80
2022-08-09T13:34:30.386Z,38.70
2022-08-09T13:38:54.189Z,40.40
2022-08-09T13:42:47.410Z,41.30
2022-08-09T13:47:29.520Z,42.50
2022-08-09T13:51:03.681Z,42.00
2022-08-09T13:55:05.121Z,41.80
2022-08-09T13:59:04.472Z,38.70
2022-08-09T14:03:03.664Z,37.00
2022-08-09T14:07:13.715Z,36.30
2022-08-09T14:11:16.087Z,35.10
2022-08-09T14:15:13.493Z,36.20
2022-08-09T14:19:33.563Z,38.20
2022-08-09T14:23:40.360Z,38.70
2022-08-09T14:27:58.454Z,37.00
2022-08-09T14:31:56.394Z,36.70
2022-08-09T14:35:54.565Z,37.70
2022-08-09T14:39:51.607Z,36.40
2022-08-09T14:43:53.730Z,36.50
2022-08-09T14:47:58.407Z,36.10
2022-08-09T14:51:58.609Z,34.70
2022-08-09T14:55:56.218Z,33.70
2022-08-09T14:59:53.287Z,33.80
2022-08-09T15:03:50.357Z,34.00
2022-08-09T15:07:56.014Z,37.10
2022-08-09T15:11:54.099Z,39.00
2022-08-09T15:15:51.899Z,39.60
2022-08-09T15:19:54.538Z,38.00
2022-08-09T15:24:05.959Z,35.90
2022-08-09T15:28:27.149Z,34.70
2022-08-09T15:32:29.813Z,36.10
2022-08-09T15:36:36.638Z,35.90
2022-08-09T15:40:33.782Z,36.00
2022-08-09T15:44:32.687Z,36.90
2022-08-09T15:48:31.926Z,37.20
2022-08-09T15:52:29.310Z,39.00
2022-08-09T15:56:29.335Z,39.70
2022-08-09T16:00:28.232Z,39.60
2022-08-09T16:04:25.307Z,40.80
2022-08-09T16:08:30.803Z,42.20
2022-08-09T16:12:30.803Z,42.70
2022-08-09T16:16:31.417Z,40.70
2022-08-09T16:20:30.551Z,39.60
2022-08-09T16:24:32.795Z,38.30
2022-08-09T16:28:31.116Z,37.60
2022-08-09T16:32:49.542Z,37.80
2022-08-09T16:36:46.854Z,36.90
2022-08-09T16:40:44.014Z,36.80
2022-08-09T16:44:42.959Z,36.00
2022-08-09T16:48:53.274Z,37.80
2022-08-09T16:52:52.978Z,39.00
2022-08-09T16:56:50.819Z,40.80
2022-08-09T17:00:49.662Z,41.50
2022-08-09T17:04:47.031Z,41.50
2022-08-09T17:09:01.715Z,40.80
2022-08-09T17:13:02.821Z,41.30
2022-08-09T17:17:26.400Z,42.00
2022-08-09T17:21:22.179Z,42.30
2022-08-09T17:25:20.467Z,43.30
2022-08-09T17:29:21.030Z,43.70
2022-08-09T17:33:22.308Z,43.10
2022-08-09T17:37:21.139Z,43.00
2022-08-09T17:41:18.327Z,42.60
2022-08-09T17:45:37.367Z,43.00
2022-08-09T17:49:35.382Z,43.40
2022-08-09T17:53:32.367Z,44.90
2022-08-09T17:58:03.713Z,45.30
2022-08-09T18:02:06.770Z,46.90
2022-08-09T18:06:22.385Z,48.30
2022-08-09T18:10:29.443Z,48.70
2022-08-09T18:14:26.673Z,49.50
2022-08-09T18:18:26.025Z,50.00
2022-08-09T18:22:34.006Z,50.70
2022-08-09T18:26:31.932Z,51.30
2022-08-09T18:30:42.420Z,52.20
2022-08-09T18:34:46.134Z,52.30
2022-08-09T18:38:45.328Z,53.20
2022-08-09T18:42:44.790Z,54.90
2022-08-09T18:46:51.472Z,55.70
2022-08-09T18:51:01.104Z,55.80
2022-08-09T18:54:58.183Z,57.20
2022-08-09T18:58:57.175Z,58.20
2022-08-09T19:02:54.557Z,58.20
2022-08-09T19:06:55.062Z,58.90
2022-08-09T19:10:52.051Z,60.00
2022-08-09T19:14:51.714Z,60.00
2022-08-09T19:18:49.126Z,61.40
2022-08-09T19:22:54.203Z,62.70
2022-08-09T19:26:51.970Z,64.20
2022-08-09T19:30:48.981Z,64.50
2022-08-09T19:34:49.718Z,64.20
2022-08-09T19:38:51.835Z,65.10
2022-08-09T19:42:49.757Z,64.70
2022-08-09T19:46:50.857Z,65.50
2022-08-09T19:50:53.980Z,66.20
2022-08-09T19:54:51.428Z,66.80
2022-08-09T19:58:56.496Z,68.00
2022-08-09T20:04:26.524Z,67.50
2022-08-09T20:07:22.792Z,68.70
2022-08-09T20:11:21.465Z,69.20
2022-08-09T20:16:34.221Z,69.00
2022-08-09T20:19:48.353Z,70.50
2022-08-09T20:23:50.806Z,72.10
2022-08-09T20:27:48.945Z,72.70
2022-08-09T20:32:16.962Z,72.20
2022-08-09T20:36:03.343Z,72.60
2022-08-09T20:40:15.255Z,73.60
2022-08-09T20:44:15.270Z,74.10
2022-08-09T20:48:23.343Z,73.40
2022-08-09T20:52:20.726Z,74.80
2022-08-09T20:56:22.119Z,76.20
2022-08-09T21:00:31.357Z,75.60
2022-08-09T21:05:54.620Z,76.20
2022-08-09T21:08:52.757Z,76.80
2022-08-09T21:16:55.088Z,79.40
2022-08-09T21:20:54.474Z,80.90
2022-08-09T21:25:11.771Z,81.80
2022-08-09T21:29:11.645Z,82.70
2022-08-09T21:33:10.915Z,82.30
2022-08-09T21:37:17.946Z,83.00
2022-08-09T21:41:17.106Z,82.60
2022-08-09T21:45:15.782Z,83.30
2022-08-09T21:49:14.531Z,84.50
2022-08-09T21:53:23.894Z,85.30
2022-08-09T21:57:38.815Z,87.10
2022-08-09T22:02:00.564Z,87.60
2022-08-09T22:05:58.721Z,89.00
2022-08-09T22:09:56.383Z,89.80
2022-08-09T22:13:53.843Z,90.20
2022-08-09T22:17:51.198Z,90.60
2022-08-09T22:21:51.039Z,91.00
2022-08-09T22:26:12.171Z,91.10
2022-08-09T22:30:06.019Z,91.30
2022-08-09T22:34:14.405Z,91.70
2022-08-09T22:38:11.633Z,92.40
2022-08-09T22:42:20.965Z,92.30
2022-08-09T22:48:14.689Z,92.70
2022-08-09T22:50:36.671Z,93.20
2022-08-09T22:54:33.902Z,94.00
2022-08-09T22:58:33.585Z,94.20
2022-08-09T23:02:31.845Z,94.90
2022-08-09T23:06:48.852Z,95.50
2022-08-09T23:10:45.831Z,96.00
2022-08-09T23:14:44.720Z,96.90
2022-08-09T23:18:43.167Z,97.30
2022-08-09T23:22:40.416Z,97.70
2022-08-09T23:26:39.161Z,98.30
2022-08-09T23:30:36.175Z,98.90
2022-08-09T23:34:33.189Z,99.30
2022-08-09T23:38:31.494Z,99.90
2022-08-09T23:42:28.580Z,99.90
2022-08-09T23:46:26.744Z,99.90
2022-08-09T23:50:23.775Z,99.90
2022-08-09T23:54:26.488Z,99.90
2022-08-09T23:58:29.591Z,99.90
